Stalwart, Michigan
Current Conditions -  °F | °C
As of 3:15 PM on Wednesday 26 Nov 2014 (Local Time) from KCIU Reporting Station
Overcast Overcast  
Wind Chill: 21°   Ceiling: 2800
Heat Index: 27°   Visibility: 10mi
Dew Point: 27°   Wind: 5mph
Humidity: 100%   Direction: 60°ENE
Pressure: 30.14"   Gusts: NA
Location:  46.1219°N, 84.1444°W
Report Text: KCIU 262015Z AUTO 06004KT 10SM FEW016 OVC028 M03/M03 A3014 RMK AO1
Loading
Personal Weather Stations






























Interactive Weather Map New forecast layout! Learn more

10-Day Weather Forecast

Advertisements
Track Severe Weather on mobile